sensor_id;sensor_type;location;lat;lon;timestamp;P1;durP1;ratioP1;P2;durP2;ratioP2
1308;SDS011;647;48.840;9.314;2022-09-13T00:00:49;61.00;;;4.73;;
1308;SDS011;647;48.840;9.314;2022-09-13T00:03:17;62.77;;;5.27;;
1308;SDS011;647;48.840;9.314;2022-09-13T00:05:44;59.77;;;4.37;;
1308;SDS011;647;48.840;9.314;2022-09-13T00:08:12;61.90;;;4.83;;
1308;SDS011;647;48.840;9.314;2022-09-13T00:10:40;61.70;;;4.63;;
1308;SDS011;647;48.840;9.314;2022-09-13T00:13:08;64.30;;;5.70;;
1308;SDS011;647;48.840;9.314;2022-09-13T00:15:40;62.70;;;4.37;;
1308;SDS011;647;48.840;9.314;2022-09-13T00:18:08;60.67;;;4.53;;
1308;SDS011;647;48.840;9.314;2022-09-13T00:20:35;60.93;;;5.10;;
1308;SDS011;647;48.840;9.314;2022-09-13T00:23:02;60.20;;;4.60;;
1308;SDS011;647;48.840;9.314;2022-09-13T00:25:29;60.57;;;5.17;;
1308;SDS011;647;48.840;9.314;2022-09-13T00:27:56;60.10;;;4.37;;
1308;SDS011;647;48.840;9.314;2022-09-13T00:30:23;59.97;;;4.60;;
1308;SDS011;647;48.840;9.314;2022-09-13T00:32:52;60.73;;;4.23;;
1308;SDS011;647;48.840;9.314;2022-09-13T00:35:19;59.97;;;4.07;;
1308;SDS011;647;48.840;9.314;2022-09-13T00:37:47;60.73;;;4.60;;
1308;SDS011;647;48.840;9.314;2022-09-13T00:40:15;60.80;;;4.23;;
1308;SDS011;647;48.840;9.314;2022-09-13T00:42:42;62.43;;;4.93;;
1308;SDS011;647;48.840;9.314;2022-09-13T00:45:16;60.77;;;4.43;;
1308;SDS011;647;48.840;9.314;2022-09-13T00:47:45;60.10;;;4.40;;
1308;SDS011;647;48.840;9.314;2022-09-13T00:50:16;59.37;;;4.03;;
1308;SDS011;647;48.840;9.314;2022-09-13T00:52:45;60.00;;;4.00;;
1308;SDS011;647;48.840;9.314;2022-09-13T00:55:15;60.77;;;4.53;;
1308;SDS011;647;48.840;9.314;2022-09-13T00:57:44;61.00;;;5.30;;
1308;SDS011;647;48.840;9.314;2022-09-13T01:00:12;64.40;;;4.73;;
1308;SDS011;647;48.840;9.314;2022-09-13T01:02:41;60.43;;;4.60;;
1308;SDS011;647;48.840;9.314;2022-09-13T01:05:09;60.07;;;4.40;;
1308;SDS011;647;48.840;9.314;2022-09-13T01:07:38;60.60;;;4.57;;
1308;SDS011;647;48.840;9.314;2022-09-13T01:10:06;61.13;;;4.40;;
1308;SDS011;647;48.840;9.314;2022-09-13T01:12:34;61.20;;;4.67;;
1308;SDS011;647;48.840;9.314;2022-09-13T01:15:03;60.43;;;4.77;;
1308;SDS011;647;48.840;9.314;2022-09-13T01:17:30;60.47;;;4.93;;
1308;SDS011;647;48.840;9.314;2022-09-13T01:19:58;59.90;;;4.60;;
1308;SDS011;647;48.840;9.314;2022-09-13T01:25:18;63.33;;;4.07;;
1308;SDS011;647;48.840;9.314;2022-09-13T01:27:58;60.83;;;4.83;;
1308;SDS011;647;48.840;9.314;2022-09-13T01:30:32;60.20;;;4.30;;
1308;SDS011;647;48.840;9.314;2022-09-13T01:33:05;60.60;;;4.30;;
1308;SDS011;647;48.840;9.314;2022-09-13T01:35:42;60.50;;;4.70;;
1308;SDS011;647;48.840;9.314;2022-09-13T01:38:17;60.90;;;4.60;;
1308;SDS011;647;48.840;9.314;2022-09-13T01:40:50;64.47;;;4.80;;
1308;SDS011;647;48.840;9.314;2022-09-13T01:43:24;60.57;;;4.80;;
1308;SDS011;647;48.840;9.314;2022-09-13T01:45:58;60.50;;;4.30;;
1308;SDS011;647;48.840;9.314;2022-09-13T01:48:32;60.73;;;4.43;;
1308;SDS011;647;48.840;9.314;2022-09-13T01:51:01;60.00;;;4.40;;
1308;SDS011;647;48.840;9.314;2022-09-13T01:53:31;61.50;;;4.63;;
1308;SDS011;647;48.840;9.314;2022-09-13T01:56:02;60.50;;;4.17;;
1308;SDS011;647;48.840;9.314;2022-09-13T01:58:32;61.60;;;5.30;;
1308;SDS011;647;48.840;9.314;2022-09-13T02:01:05;60.10;;;4.70;;
1308;SDS011;647;48.840;9.314;2022-09-13T02:03:34;64.20;;;5.00;;
1308;SDS011;647;48.840;9.314;2022-09-13T02:06:05;61.30;;;4.70;;
1308;SDS011;647;48.840;9.314;2022-09-13T02:08:34;60.53;;;4.60;;
1308;SDS011;647;48.840;9.314;2022-09-13T02:11:05;60.50;;;4.90;;
1308;SDS011;647;48.840;9.314;2022-09-13T02:13:35;59.90;;;4.30;;
1308;SDS011;647;48.840;9.314;2022-09-13T02:16:06;61.07;;;4.80;;
1308;SDS011;647;48.840;9.314;2022-09-13T02:18:34;61.40;;;4.57;;
1308;SDS011;647;48.840;9.314;2022-09-13T02:21:04;60.53;;;4.50;;
1308;SDS011;647;48.840;9.314;2022-09-13T02:23:35;60.87;;;4.50;;
1308;SDS011;647;48.840;9.314;2022-09-13T02:26:04;62.33;;;5.37;;
1308;SDS011;647;48.840;9.314;2022-09-13T02:28:34;61.47;;;5.10;;
1308;SDS011;647;48.840;9.314;2022-09-13T02:31:03;60.17;;;4.50;;
1308;SDS011;647;48.840;9.314;2022-09-13T02:33:33;61.47;;;4.70;;
1308;SDS011;647;48.840;9.314;2022-09-13T02:36:02;59.93;;;4.63;;
1308;SDS011;647;48.840;9.314;2022-09-13T02:38:31;60.90;;;5.20;;
1308;SDS011;647;48.840;9.314;2022-09-13T02:40:59;64.53;;;4.37;;
1308;SDS011;647;48.840;9.314;2022-09-13T02:43:29;60.87;;;4.77;;
1308;SDS011;647;48.840;9.314;2022-09-13T02:45:59;61.47;;;4.60;;
1308;SDS011;647;48.840;9.314;2022-09-13T02:48:31;60.00;;;4.10;;
1308;SDS011;647;48.840;9.314;2022-09-13T02:51:05;60.50;;;4.43;;
1308;SDS011;647;48.840;9.314;2022-09-13T02:53:35;64.10;;;4.60;;
1308;SDS011;647;48.840;9.314;2022-09-13T02:56:06;60.67;;;4.40;;
1308;SDS011;647;48.840;9.314;2022-09-13T02:58:38;61.20;;;5.10;;
1308;SDS011;647;48.840;9.314;2022-09-13T03:01:08;60.27;;;4.47;;
1308;SDS011;647;48.840;9.314;2022-09-13T03:03:35;61.37;;;4.67;;
1308;SDS011;647;48.840;9.314;2022-09-13T03:06:03;60.77;;;4.63;;
1308;SDS011;647;48.840;9.314;2022-09-13T03:08:31;60.27;;;4.30;;
1308;SDS011;647;48.840;9.314;2022-09-13T03:11:00;59.60;;;4.33;;
1308;SDS011;647;48.840;9.314;2022-09-13T03:16:14;61.17;;;4.80;;
1308;SDS011;647;48.840;9.314;2022-09-13T03:18:47;60.60;;;4.97;;
1308;SDS011;647;48.840;9.314;2022-09-13T03:21:21;61.17;;;4.60;;
1308;SDS011;647;48.840;9.314;2022-09-13T03:23:52;60.20;;;4.80;;
1308;SDS011;647;48.840;9.314;2022-09-13T03:26:24;59.87;;;4.67;;
1308;SDS011;647;48.840;9.314;2022-09-13T03:28:59;60.27;;;4.40;;
1308;SDS011;647;48.840;9.314;2022-09-13T03:31:31;63.57;;;4.50;;
1308;SDS011;647;48.840;9.314;2022-09-13T03:34:00;59.93;;;4.20;;
1308;SDS011;647;48.840;9.314;2022-09-13T03:36:31;63.47;;;5.20;;
1308;SDS011;647;48.840;9.314;2022-09-13T03:39:02;61.77;;;4.70;;
1308;SDS011;647;48.840;9.314;2022-09-13T03:41:35;60.73;;;4.80;;
1308;SDS011;647;48.840;9.314;2022-09-13T03:44:03;62.97;;;5.13;;
1308;SDS011;647;48.840;9.314;2022-09-13T03:46:32;61.67;;;4.63;;
1308;SDS011;647;48.840;9.314;2022-09-13T03:49:01;63.97;;;4.07;;
1308;SDS011;647;48.840;9.314;2022-09-13T03:51:30;60.60;;;4.93;;
1308;SDS011;647;48.840;9.314;2022-09-13T03:53:58;65.50;;;4.90;;
1308;SDS011;647;48.840;9.314;2022-09-13T03:56:27;60.63;;;4.73;;
1308;SDS011;647;48.840;9.314;2022-09-13T04:01:57;61.50;;;5.20;;
1308;SDS011;647;48.840;9.314;2022-09-13T04:04:24;60.83;;;5.00;;
1308;SDS011;647;48.840;9.314;2022-09-13T04:06:53;61.37;;;5.30;;
1308;SDS011;647;48.840;9.314;2022-09-13T04:09:20;61.50;;;4.87;;
1308;SDS011;647;48.840;9.314;2022-09-13T04:11:48;61.43;;;5.63;;
1308;SDS011;647;48.840;9.314;2022-09-13T04:14:15;61.87;;;5.27;;
1308;SDS011;647;48.840;9.314;2022-09-13T04:16:42;60.27;;;4.53;;
1308;SDS011;647;48.840;9.314;2022-09-13T04:19:09;61.00;;;4.70;;
1308;SDS011;647;48.840;9.314;2022-09-13T04:21:36;61.67;;;4.70;;
1308;SDS011;647;48.840;9.314;2022-09-13T04:24:05;60.27;;;4.53;;
1308;SDS011;647;48.840;9.314;2022-09-13T04:26:32;61.20;;;4.80;;
1308;SDS011;647;48.840;9.314;2022-09-13T04:28:59;61.90;;;5.03;;
1308;SDS011;647;48.840;9.314;2022-09-13T04:31:27;61.17;;;4.43;;
1308;SDS011;647;48.840;9.314;2022-09-13T04:33:54;61.97;;;5.37;;
1308;SDS011;647;48.840;9.314;2022-09-13T04:36:21;60.70;;;4.27;;
1308;SDS011;647;48.840;9.314;2022-09-13T04:38:48;62.00;;;4.67;;
1308;SDS011;647;48.840;9.314;2022-09-13T04:41:16;61.50;;;4.87;;
1308;SDS011;647;48.840;9.314;2022-09-13T04:43:47;60.87;;;4.97;;
1308;SDS011;647;48.840;9.314;2022-09-13T04:46:14;60.20;;;4.10;;
1308;SDS011;647;48.840;9.314;2022-09-13T04:48:41;59.90;;;4.50;;
1308;SDS011;647;48.840;9.314;2022-09-13T04:51:08;59.20;;;4.13;;
1308;SDS011;647;48.840;9.314;2022-09-13T04:53:36;59.97;;;4.30;;
1308;SDS011;647;48.840;9.314;2022-09-13T04:56:03;61.27;;;5.10;;
1308;SDS011;647;48.840;9.314;2022-09-13T04:58:32;64.73;;;4.60;;
1308;SDS011;647;48.840;9.314;2022-09-13T05:01:00;60.67;;;4.60;;
1308;SDS011;647;48.840;9.314;2022-09-13T05:03:28;60.03;;;4.30;;
1308;SDS011;647;48.840;9.314;2022-09-13T05:05:59;61.20;;;4.43;;
1308;SDS011;647;48.840;9.314;2022-09-13T05:08:26;60.90;;;4.60;;
1308;SDS011;647;48.840;9.314;2022-09-13T05:10:53;61.37;;;5.20;;
1308;SDS011;647;48.840;9.314;2022-09-13T05:13:21;61.37;;;4.63;;
1308;SDS011;647;48.840;9.314;2022-09-13T05:15:49;61.77;;;5.07;;
1308;SDS011;647;48.840;9.314;2022-09-13T05:18:16;61.97;;;4.90;;
1308;SDS011;647;48.840;9.314;2022-09-13T05:20:43;62.07;;;5.00;;
1308;SDS011;647;48.840;9.314;2022-09-13T05:23:10;61.10;;;5.17;;
1308;SDS011;647;48.840;9.314;2022-09-13T05:25:37;61.10;;;5.00;;
1308;SDS011;647;48.840;9.314;2022-09-13T05:28:04;65.00;;;5.00;;
1308;SDS011;647;48.840;9.314;2022-09-13T05:30:31;60.23;;;4.57;;
1308;SDS011;647;48.840;9.314;2022-09-13T05:33:00;62.27;;;5.13;;
1308;SDS011;647;48.840;9.314;2022-09-13T05:35:28;61.43;;;5.00;;
1308;SDS011;647;48.840;9.314;2022-09-13T05:37:55;60.57;;;5.10;;
1308;SDS011;647;48.840;9.314;2022-09-13T05:40:22;60.40;;;4.47;;
1308;SDS011;647;48.840;9.314;2022-09-13T05:42:51;60.33;;;5.00;;
1308;SDS011;647;48.840;9.314;2022-09-13T05:45:18;60.40;;;5.30;;
1308;SDS011;647;48.840;9.314;2022-09-13T05:47:48;61.00;;;5.20;;
1308;SDS011;647;48.840;9.314;2022-09-13T05:50:17;60.97;;;5.07;;
1308;SDS011;647;48.840;9.314;2022-09-13T05:52:49;60.30;;;4.60;;
1308;SDS011;647;48.840;9.314;2022-09-13T05:55:17;60.50;;;4.90;;
1308;SDS011;647;48.840;9.314;2022-09-13T05:57:44;64.17;;;5.67;;
1308;SDS011;647;48.840;9.314;2022-09-13T06:00:11;60.80;;;5.33;;
1308;SDS011;647;48.840;9.314;2022-09-13T06:02:38;62.00;;;5.70;;
1308;SDS011;647;48.840;9.314;2022-09-13T06:05:06;63.17;;;5.23;;
1308;SDS011;647;48.840;9.314;2022-09-13T06:07:35;60.30;;;4.70;;
1308;SDS011;647;48.840;9.314;2022-09-13T06:10:02;61.73;;;4.70;;
1308;SDS011;647;48.840;9.314;2022-09-13T06:12:30;60.10;;;4.83;;
1308;SDS011;647;48.840;9.314;2022-09-13T06:14:57;60.43;;;4.47;;
1308;SDS011;647;48.840;9.314;2022-09-13T06:17:24;60.27;;;4.97;;
1308;SDS011;647;48.840;9.314;2022-09-13T06:19:51;60.53;;;4.70;;
1308;SDS011;647;48.840;9.314;2022-09-13T06:22:18;60.00;;;4.40;;
1308;SDS011;647;48.840;9.314;2022-09-13T06:24:46;60.50;;;4.23;;
1308;SDS011;647;48.840;9.314;2022-09-13T06:27:14;59.53;;;4.10;;
1308;SDS011;647;48.840;9.314;2022-09-13T06:29:41;59.80;;;4.40;;
1308;SDS011;647;48.840;9.314;2022-09-13T06:32:08;59.77;;;4.00;;
1308;SDS011;647;48.840;9.314;2022-09-13T06:34:35;59.30;;;4.00;;
1308;SDS011;647;48.840;9.314;2022-09-13T06:37:02;59.90;;;4.43;;
1308;SDS011;647;48.840;9.314;2022-09-13T06:39:29;60.37;;;4.47;;
1308;SDS011;647;48.840;9.314;2022-09-13T06:41:59;59.50;;;4.43;;
1308;SDS011;647;48.840;9.314;2022-09-13T06:44:26;59.30;;;3.87;;
1308;SDS011;647;48.840;9.314;2022-09-13T06:46:54;63.00;;;4.13;;
1308;SDS011;647;48.840;9.314;2022-09-13T06:49:22;59.90;;;4.07;;
1308;SDS011;647;48.840;9.314;2022-09-13T06:51:49;59.90;;;4.70;;
1308;SDS011;647;48.840;9.314;2022-09-13T06:54:16;60.67;;;4.63;;
1308;SDS011;647;48.840;9.314;2022-09-13T06:56:43;59.70;;;4.13;;
1308;SDS011;647;48.840;9.314;2022-09-13T06:59:12;59.00;;;3.87;;
1308;SDS011;647;48.840;9.314;2022-09-13T07:01:40;62.40;;;4.40;;
1308;SDS011;647;48.840;9.314;2022-09-13T07:04:07;59.60;;;4.00;;
1308;SDS011;647;48.840;9.314;2022-09-13T07:06:36;59.90;;;4.37;;
1308;SDS011;647;48.840;9.314;2022-09-13T07:09:04;59.97;;;4.37;;
1308;SDS011;647;48.840;9.314;2022-09-13T07:11:32;61.00;;;5.03;;
1308;SDS011;647;48.840;9.314;2022-09-13T07:14:00;61.87;;;4.67;;
1308;SDS011;647;48.840;9.314;2022-09-13T07:16:29;60.07;;;4.33;;
1308;SDS011;647;48.840;9.314;2022-09-13T07:18:57;59.97;;;4.30;;
1308;SDS011;647;48.840;9.314;2022-09-13T07:21:25;59.90;;;4.03;;
1308;SDS011;647;48.840;9.314;2022-09-13T07:23:52;60.17;;;4.70;;
1308;SDS011;647;48.840;9.314;2022-09-13T07:26:20;60.17;;;4.27;;
1308;SDS011;647;48.840;9.314;2022-09-13T07:28:48;60.10;;;4.20;;
1308;SDS011;647;48.840;9.314;2022-09-13T07:31:16;59.83;;;4.40;;
1308;SDS011;647;48.840;9.314;2022-09-13T07:33:46;59.23;;;3.87;;
1308;SDS011;647;48.840;9.314;2022-09-13T07:36:13;60.20;;;4.83;;
1308;SDS011;647;48.840;9.314;2022-09-13T07:38:41;59.53;;;4.30;;
1308;SDS011;647;48.840;9.314;2022-09-13T07:41:10;59.70;;;4.20;;
1308;SDS011;647;48.840;9.314;2022-09-13T07:43:38;59.40;;;3.63;;
1308;SDS011;647;48.840;9.314;2022-09-13T07:46:06;59.63;;;4.50;;
1308;SDS011;647;48.840;9.314;2022-09-13T07:48:34;59.73;;;3.63;;
1308;SDS011;647;48.840;9.314;2022-09-13T07:51:03;59.50;;;3.93;;
1308;SDS011;647;48.840;9.314;2022-09-13T07:53:32;62.03;;;4.53;;
1308;SDS011;647;48.840;9.314;2022-09-13T07:55:59;59.67;;;3.80;;
1308;SDS011;647;48.840;9.314;2022-09-13T07:58:27;60.70;;;4.10;;
1308;SDS011;647;48.840;9.314;2022-09-13T08:01:03;60.07;;;3.83;;
1308;SDS011;647;48.840;9.314;2022-09-13T08:03:30;59.33;;;3.33;;
1308;SDS011;647;48.840;9.314;2022-09-13T08:05:58;59.47;;;3.80;;
1308;SDS011;647;48.840;9.314;2022-09-13T08:08:26;58.97;;;3.30;;
1308;SDS011;647;48.840;9.314;2022-09-13T08:10:53;59.20;;;3.30;;
1308;SDS011;647;48.840;9.314;2022-09-13T08:13:21;59.50;;;4.27;;
1308;SDS011;647;48.840;9.314;2022-09-13T08:15:48;59.77;;;3.63;;
1308;SDS011;647;48.840;9.314;2022-09-13T08:18:15;59.60;;;3.43;;
1308;SDS011;647;48.840;9.314;2022-09-13T08:20:42;59.10;;;3.47;;
1308;SDS011;647;48.840;9.314;2022-09-13T08:23:10;59.00;;;3.47;;
1308;SDS011;647;48.840;9.314;2022-09-13T08:25:39;59.20;;;3.57;;
1308;SDS011;647;48.840;9.314;2022-09-13T08:28:07;59.27;;;3.47;;
1308;SDS011;647;48.840;9.314;2022-09-13T08:30:35;59.67;;;3.47;;
1308;SDS011;647;48.840;9.314;2022-09-13T08:33:02;60.67;;;3.10;;
1308;SDS011;647;48.840;9.314;2022-09-13T08:35:31;58.67;;;3.10;;
1308;SDS011;647;48.840;9.314;2022-09-13T08:37:59;63.00;;;3.40;;
1308;SDS011;647;48.840;9.314;2022-09-13T08:40:26;58.97;;;3.03;;
1308;SDS011;647;48.840;9.314;2022-09-13T08:42:57;61.13;;;3.10;;
1308;SDS011;647;48.840;9.314;2022-09-13T08:45:28;58.10;;;2.83;;
1308;SDS011;647;48.840;9.314;2022-09-13T08:47:56;59.20;;;3.30;;
1308;SDS011;647;48.840;9.314;2022-09-13T08:50:25;59.30;;;3.13;;
1308;SDS011;647;48.840;9.314;2022-09-13T08:52:58;60.90;;;3.20;;
1308;SDS011;647;48.840;9.314;2022-09-13T08:55:32;59.37;;;2.83;;
1308;SDS011;647;48.840;9.314;2022-09-13T08:58:05;58.30;;;2.70;;
1308;SDS011;647;48.840;9.314;2022-09-13T09:00:37;59.00;;;3.47;;
1308;SDS011;647;48.840;9.314;2022-09-13T09:03:15;58.80;;;2.70;;
1308;SDS011;647;48.840;9.314;2022-09-13T09:05:45;59.37;;;2.87;;
1308;SDS011;647;48.840;9.314;2022-09-13T09:08:14;58.77;;;3.20;;
1308;SDS011;647;48.840;9.314;2022-09-13T09:10:45;59.40;;;3.40;;
1308;SDS011;647;48.840;9.314;2022-09-13T09:13:16;59.00;;;3.60;;
1308;SDS011;647;48.840;9.314;2022-09-13T09:15:45;59.77;;;2.93;;
1308;SDS011;647;48.840;9.314;2022-09-13T09:18:16;60.40;;;3.20;;
1308;SDS011;647;48.840;9.314;2022-09-13T09:20:45;58.77;;;3.20;;
1308;SDS011;647;48.840;9.314;2022-09-13T09:23:13;59.13;;;3.23;;
1308;SDS011;647;48.840;9.314;2022-09-13T09:25:41;58.60;;;3.33;;
1308;SDS011;647;48.840;9.314;2022-09-13T09:28:09;58.80;;;3.00;;
1308;SDS011;647;48.840;9.314;2022-09-13T09:30:40;57.90;;;2.93;;
1308;SDS011;647;48.840;9.314;2022-09-13T09:33:12;58.10;;;2.83;;
1308;SDS011;647;48.840;9.314;2022-09-13T09:35:48;58.90;;;3.03;;
1308;SDS011;647;48.840;9.314;2022-09-13T09:41:11;58.10;;;2.43;;
1308;SDS011;647;48.840;9.314;2022-09-13T09:43:41;57.73;;;2.57;;
1308;SDS011;647;48.840;9.314;2022-09-13T09:46:11;58.60;;;2.90;;
1308;SDS011;647;48.840;9.314;2022-09-13T09:48:42;59.80;;;2.50;;
1308;SDS011;647;48.840;9.314;2022-09-13T09:51:11;58.40;;;2.53;;
1308;SDS011;647;48.840;9.314;2022-09-13T09:53:40;59.50;;;2.40;;
1308;SDS011;647;48.840;9.314;2022-09-13T09:56:21;62.80;;;2.63;;
1308;SDS011;647;48.840;9.314;2022-09-13T09:58:49;58.50;;;2.40;;
1308;SDS011;647;48.840;9.314;2022-09-13T10:01:20;58.17;;;2.43;;
1308;SDS011;647;48.840;9.314;2022-09-13T10:03:49;58.10;;;2.60;;
1308;SDS011;647;48.840;9.314;2022-09-13T10:06:18;58.00;;;2.70;;
1308;SDS011;647;48.840;9.314;2022-09-13T10:08:46;58.80;;;2.60;;
1308;SDS011;647;48.840;9.314;2022-09-13T10:11:15;58.17;;;2.60;;
1308;SDS011;647;48.840;9.314;2022-09-13T10:13:55;58.47;;;2.67;;
1308;SDS011;647;48.840;9.314;2022-09-13T10:16:25;57.90;;;2.57;;
1308;SDS011;647;48.840;9.314;2022-09-13T10:18:53;60.77;;;2.47;;
1308;SDS011;647;48.840;9.314;2022-09-13T10:21:22;57.87;;;2.73;;
1308;SDS011;647;48.840;9.314;2022-09-13T10:23:49;58.67;;;2.60;;
1308;SDS011;647;48.840;9.314;2022-09-13T10:26:17;60.73;;;2.80;;
1308;SDS011;647;48.840;9.314;2022-09-13T10:28:47;57.90;;;2.60;;
1308;SDS011;647;48.840;9.314;2022-09-13T10:31:17;57.17;;;2.37;;
1308;SDS011;647;48.840;9.314;2022-09-13T10:33:51;59.83;;;2.40;;
1308;SDS011;647;48.840;9.314;2022-09-13T10:36:18;57.30;;;2.30;;
1308;SDS011;647;48.840;9.314;2022-09-13T10:38:50;58.90;;;2.70;;
1308;SDS011;647;48.840;9.314;2022-09-13T10:41:22;56.90;;;2.10;;
1308;SDS011;647;48.840;9.314;2022-09-13T10:43:54;56.77;;;2.03;;
1308;SDS011;647;48.840;9.314;2022-09-13T10:46:22;59.17;;;2.40;;
1308;SDS011;647;48.840;9.314;2022-09-13T10:48:51;56.97;;;2.30;;
1308;SDS011;647;48.840;9.314;2022-09-13T10:51:33;57.00;;;2.00;;
1308;SDS011;647;48.840;9.314;2022-09-13T10:56:50;57.73;;;2.33;;
1308;SDS011;647;48.840;9.314;2022-09-13T10:59:21;56.90;;;1.90;;
1308;SDS011;647;48.840;9.314;2022-09-13T11:01:51;56.80;;;2.00;;
1308;SDS011;647;48.840;9.314;2022-09-13T11:04:29;56.87;;;2.13;;
1308;SDS011;647;48.840;9.314;2022-09-13T11:07:03;57.30;;;2.07;;
1308;SDS011;647;48.840;9.314;2022-09-13T11:09:33;58.07;;;2.20;;
1308;SDS011;647;48.840;9.314;2022-09-13T11:12:03;56.97;;;2.20;;
1308;SDS011;647;48.840;9.314;2022-09-13T11:14:37;57.13;;;2.07;;
1308;SDS011;647;48.840;9.314;2022-09-13T11:17:12;57.20;;;2.03;;
1308;SDS011;647;48.840;9.314;2022-09-13T11:19:50;57.33;;;2.23;;
1308;SDS011;647;48.840;9.314;2022-09-13T11:22:23;56.87;;;2.13;;
1308;SDS011;647;48.840;9.314;2022-09-13T11:24:56;56.77;;;1.87;;
1308;SDS011;647;48.840;9.314;2022-09-13T11:27:27;56.47;;;1.80;;
1308;SDS011;647;48.840;9.314;2022-09-13T11:30:02;56.77;;;2.10;;
1308;SDS011;647;48.840;9.314;2022-09-13T11:32:34;56.97;;;2.10;;
1308;SDS011;647;48.840;9.314;2022-09-13T11:35:15;57.30;;;2.27;;
1308;SDS011;647;48.840;9.314;2022-09-13T11:37:46;56.60;;;1.90;;
1308;SDS011;647;48.840;9.314;2022-09-13T11:43:01;57.30;;;1.97;;
1308;SDS011;647;48.840;9.314;2022-09-13T11:45:33;56.70;;;2.10;;
1308;SDS011;647;48.840;9.314;2022-09-13T11:48:08;56.70;;;1.87;;
1308;SDS011;647;48.840;9.314;2022-09-13T11:50:45;56.80;;;2.10;;
1308;SDS011;647;48.840;9.314;2022-09-13T11:53:18;56.97;;;2.27;;
1308;SDS011;647;48.840;9.314;2022-09-13T11:55:52;56.80;;;2.53;;
1308;SDS011;647;48.840;9.314;2022-09-13T11:58:20;57.10;;;1.93;;
1308;SDS011;647;48.840;9.314;2022-09-13T12:00:49;56.67;;;2.07;;
1308;SDS011;647;48.840;9.314;2022-09-13T12:03:20;57.50;;;2.17;;
1308;SDS011;647;48.840;9.314;2022-09-13T12:05:51;56.40;;;1.90;;
1308;SDS011;647;48.840;9.314;2022-09-13T12:08:21;57.40;;;2.10;;
1308;SDS011;647;48.840;9.314;2022-09-13T12:10:49;57.07;;;2.00;;
1308;SDS011;647;48.840;9.314;2022-09-13T12:13:17;57.30;;;2.00;;
1308;SDS011;647;48.840;9.314;2022-09-13T12:15:46;56.90;;;2.00;;
1308;SDS011;647;48.840;9.314;2022-09-13T12:18:16;56.40;;;2.10;;
1308;SDS011;647;48.840;9.314;2022-09-13T12:20:47;56.87;;;2.10;;
1308;SDS011;647;48.840;9.314;2022-09-13T12:23:18;56.57;;;1.90;;
1308;SDS011;647;48.840;9.314;2022-09-13T12:25:48;56.40;;;1.67;;
1308;SDS011;647;48.840;9.314;2022-09-13T12:28:17;56.87;;;2.03;;
1308;SDS011;647;48.840;9.314;2022-09-13T12:30:46;57.60;;;1.83;;
1308;SDS011;647;48.840;9.314;2022-09-13T12:33:16;56.80;;;1.90;;
1308;SDS011;647;48.840;9.314;2022-09-13T12:35:47;56.80;;;1.90;;
1308;SDS011;647;48.840;9.314;2022-09-13T12:38:23;58.60;;;1.80;;
1308;SDS011;647;48.840;9.314;2022-09-13T12:41:03;56.77;;;1.90;;
1308;SDS011;647;48.840;9.314;2022-09-13T12:43:42;57.37;;;2.30;;
1308;SDS011;647;48.840;9.314;2022-09-13T12:46:17;56.80;;;1.90;;
1308;SDS011;647;48.840;9.314;2022-09-13T12:48:53;56.97;;;2.03;;
1308;SDS011;647;48.840;9.314;2022-09-13T12:51:29;57.20;;;1.97;;
1308;SDS011;647;48.840;9.314;2022-09-13T12:56:53;56.67;;;1.70;;
1308;SDS011;647;48.840;9.314;2022-09-13T12:59:27;57.87;;;2.03;;
1308;SDS011;647;48.840;9.314;2022-09-13T13:01:59;56.87;;;1.77;;
1308;SDS011;647;48.840;9.314;2022-09-13T13:04:28;56.70;;;1.87;;
1308;SDS011;647;48.840;9.314;2022-09-13T13:06:57;56.83;;;2.13;;
1308;SDS011;647;48.840;9.314;2022-09-13T13:09:27;57.87;;;1.83;;
1308;SDS011;647;48.840;9.314;2022-09-13T13:11:58;56.67;;;1.90;;
1308;SDS011;647;48.840;9.314;2022-09-13T13:19:55;57.73;;;1.80;;
1308;SDS011;647;48.840;9.314;2022-09-13T13:25:27;57.00;;;2.03;;
1308;SDS011;647;48.840;9.314;2022-09-13T13:27:57;57.27;;;1.93;;
1308;SDS011;647;48.840;9.314;2022-09-13T13:33:17;56.80;;;1.87;;
1308;SDS011;647;48.840;9.314;2022-09-13T13:35:45;57.07;;;1.80;;
1308;SDS011;647;48.840;9.314;2022-09-13T13:38:14;57.57;;;2.13;;
1308;SDS011;647;48.840;9.314;2022-09-13T13:40:41;58.17;;;2.10;;
1308;SDS011;647;48.840;9.314;2022-09-13T13:45:59;57.07;;;2.00;;
1308;SDS011;647;48.840;9.314;2022-09-13T13:48:45;57.10;;;1.80;;
1308;SDS011;647;48.840;9.314;2022-09-13T13:51:14;57.00;;;1.90;;
1308;SDS011;647;48.840;9.314;2022-09-13T13:53:43;57.07;;;1.93;;
1308;SDS011;647;48.840;9.314;2022-09-13T13:56:16;56.37;;;1.80;;
1308;SDS011;647;48.840;9.314;2022-09-13T13:58:45;56.57;;;2.03;;
1308;SDS011;647;48.840;9.314;2022-09-13T14:01:15;57.00;;;2.00;;
1308;SDS011;647;48.840;9.314;2022-09-13T14:06:32;56.90;;;1.87;;
1308;SDS011;647;48.840;9.314;2022-09-13T14:09:02;56.77;;;1.90;;
1308;SDS011;647;48.840;9.314;2022-09-13T14:11:34;58.27;;;1.63;;
1308;SDS011;647;48.840;9.314;2022-09-13T14:14:12;57.03;;;1.90;;
1308;SDS011;647;48.840;9.314;2022-09-13T14:16:47;57.30;;;2.20;;
1308;SDS011;647;48.840;9.314;2022-09-13T14:19:23;57.17;;;2.00;;
1308;SDS011;647;48.840;9.314;2022-09-13T14:22:04;57.67;;;2.10;;
1308;SDS011;647;48.840;9.314;2022-09-13T14:24:35;59.00;;;2.17;;
1308;SDS011;647;48.840;9.314;2022-09-13T14:27:02;57.07;;;2.00;;
1308;SDS011;647;48.840;9.314;2022-09-13T14:29:29;56.93;;;2.00;;
1308;SDS011;647;48.840;9.314;2022-09-13T14:32:01;57.53;;;2.07;;
1308;SDS011;647;48.840;9.314;2022-09-13T14:34:30;57.40;;;2.20;;
1308;SDS011;647;48.840;9.314;2022-09-13T14:36:58;56.90;;;1.80;;
1308;SDS011;647;48.840;9.314;2022-09-13T14:39:27;56.57;;;1.57;;
1308;SDS011;647;48.840;9.314;2022-09-13T14:41:57;56.67;;;1.90;;
1308;SDS011;647;48.840;9.314;2022-09-13T14:44:25;60.50;;;2.00;;
1308;SDS011;647;48.840;9.314;2022-09-13T14:46:54;57.20;;;2.13;;
1308;SDS011;647;48.840;9.314;2022-09-13T14:49:25;56.77;;;1.80;;
1308;SDS011;647;48.840;9.314;2022-09-13T14:51:54;56.73;;;1.83;;
1308;SDS011;647;48.840;9.314;2022-09-13T14:54:25;57.10;;;1.80;;
1308;SDS011;647;48.840;9.314;2022-09-13T14:56:55;57.47;;;2.37;;
1308;SDS011;647;48.840;9.314;2022-09-13T14:59:24;57.30;;;1.90;;
1308;SDS011;647;48.840;9.314;2022-09-13T15:01:52;56.90;;;1.80;;
1308;SDS011;647;48.840;9.314;2022-09-13T15:04:20;56.73;;;1.80;;
1308;SDS011;647;48.840;9.314;2022-09-13T15:07:06;56.57;;;1.80;;
1308;SDS011;647;48.840;9.314;2022-09-13T15:09:33;57.00;;;1.90;;
1308;SDS011;647;48.840;9.314;2022-09-13T15:12:02;57.70;;;1.80;;
1308;SDS011;647;48.840;9.314;2022-09-13T15:14:30;57.50;;;1.80;;
1308;SDS011;647;48.840;9.314;2022-09-13T15:16:59;57.97;;;2.20;;
1308;SDS011;647;48.840;9.314;2022-09-13T15:19:36;57.20;;;2.03;;
1308;SDS011;647;48.840;9.314;2022-09-13T15:22:15;57.40;;;2.30;;
1308;SDS011;647;48.840;9.314;2022-09-13T15:24:45;57.40;;;2.10;;
1308;SDS011;647;48.840;9.314;2022-09-13T15:27:16;57.57;;;2.53;;
1308;SDS011;647;48.840;9.314;2022-09-13T15:29:47;58.27;;;2.30;;
1308;SDS011;647;48.840;9.314;2022-09-13T15:32:18;58.30;;;2.60;;
1308;SDS011;647;48.840;9.314;2022-09-13T15:34:47;57.37;;;2.13;;
1308;SDS011;647;48.840;9.314;2022-09-13T15:37:16;57.53;;;2.30;;
1308;SDS011;647;48.840;9.314;2022-09-13T15:39:45;58.97;;;2.47;;
1308;SDS011;647;48.840;9.314;2022-09-13T15:42:13;58.20;;;2.50;;
1308;SDS011;647;48.840;9.314;2022-09-13T15:44:41;58.13;;;2.53;;
1308;SDS011;647;48.840;9.314;2022-09-13T15:47:09;57.97;;;2.40;;
1308;SDS011;647;48.840;9.314;2022-09-13T15:49:36;58.17;;;2.60;;
1308;SDS011;647;48.840;9.314;2022-09-13T15:52:04;57.97;;;2.60;;
1308;SDS011;647;48.840;9.314;2022-09-13T15:54:35;58.23;;;2.50;;
1308;SDS011;647;48.840;9.314;2022-09-13T15:57:04;66.03;;;2.63;;
1308;SDS011;647;48.840;9.314;2022-09-13T15:59:32;60.00;;;2.87;;
1308;SDS011;647;48.840;9.314;2022-09-13T16:01:59;58.37;;;2.30;;
1308;SDS011;647;48.840;9.314;2022-09-13T16:04:27;58.20;;;2.63;;
1308;SDS011;647;48.840;9.314;2022-09-13T16:06:54;58.00;;;2.37;;